Time;durP1;ratioP1;P1;durP2;ratioP2;P2;SDS_P1;SDS_P2;PMS_P1;PMS_P2;Temp;Humidity;BMP_temperature;BMP_pressure;BME280_temperature;BME280_humidity;BME280_pressure;Samples;Min_cycle;Max_cycle;Signal;HPM_P1;HPM_P2
2024/02/22 00:02:04;;;;;;;10.13;3.87;;;7.50;70.60;;;;;;5029275;28;20076;-64
2024/02/22 00:04:30;;;;;;;8.02;3.10;;;7.50;80.70;;;;;;5028982;28;20064;-66
2024/02/22 00:06:57;;;;;;;6.15;3.17;;;7.30;70.70;;;;;;5041599;28;20321;-64
2024/02/22 00:09:23;;;;;;;8.68;3.42;;;7.50;90.20;;;;;;5039257;28;20075;-67
2024/02/22 00:11:50;;;;;;;7.90;3.13;;;;;;;;;;5020175;28;20325;-64
2024/02/22 00:14:16;;;;;;;8.85;3.47;;;;;;;;;;5021246;28;20098;-64
2024/02/22 00:16:41;;;;;;;5.32;3.20;;;7.30;90.20;;;;;;5021467;28;20014;-64
2024/02/22 00:19:09;;;;;;;8.40;3.58;;;;;;;;;;5030182;28;20084;-63
2024/02/22 00:21:36;;;;;;;7.03;3.67;;;;;;;;;;5040391;28;20037;-63
2024/02/22 00:24:03;;;;;;;7.00;3.30;;;7.00;72.40;;;;;;5040484;28;20333;-64
2024/02/22 00:26:29;;;;;;;23.20;4.95;;;;;;;;;;5040673;28;20029;-63
2024/02/22 00:28:55;;;;;;;11.35;3.70;;;;;;;;;;5040629;28;20029;-63
2024/02/22 00:31:21;;;;;;;7.60;3.55;;;;;;;;;;5040276;28;20021;-63
2024/02/22 00:33:47;;;;;;;8.57;4.20;;;;;;;;;;5039552;28;20049;-64
2024/02/22 00:36:14;;;;;;;8.75;4.00;;;;;;;;;;5040578;28;20367;-64
2024/02/22 00:38:40;;;;;;;10.55;4.05;;;;;;;;;;5040467;28;20025;-63
2024/02/22 00:41:07;;;;;;;9.80;4.25;;;;;;;;;;5040158;28;20217;-63
2024/02/22 00:43:33;;;;;;;10.10;3.88;;;6.80;91.60;;;;;;5040396;28;20088;-64
2024/02/22 00:45:59;;;;;;;10.15;3.55;;;;;;;;;;5040639;28;20045;-64
2024/02/22 00:48:25;;;;;;;8.80;4.18;;;;;;;;;;5040615;28;20025;-65
2024/02/22 00:50:51;;;;;;;6.35;3.67;;;;;;;;;;5040011;28;20390;-64
2024/02/22 00:53:17;;;;;;;10.75;4.00;;;;;;;;;;5040091;28;20033;-65
2024/02/22 00:55:43;;;;;;;8.88;3.50;;;;;;;;;;5040049;28;20412;-64
2024/02/22 00:58:09;;;;;;;7.40;3.92;;;6.80;89.10;;;;;;5039585;28;20013;-64
2024/02/22 01:00:35;;;;;;;9.20;4.00;;;6.80;83.80;;;;;;5039813;28;20045;-65
2024/02/22 01:03:02;;;;;;;14.32;3.40;;;6.80;80.20;;;;;;5040042;28;20083;-65
2024/02/22 01:05:28;;;;;;;14.82;4.05;;;;;;;;;;5039935;28;20072;-64
2024/02/22 01:07:54;;;;;;;10.02;3.58;;;;;;;;;;5039658;28;20025;-65
2024/02/22 01:10:21;;;;;;;12.43;3.90;;;6.90;75.30;;;;;;5039783;28;20021;-64
2024/02/22 01:12:48;;;;;;;9.98;3.35;;;;;;;;;;5039832;28;20078;-64
2024/02/22 01:15:14;;;;;;;6.85;2.97;;;7.10;84.10;;;;;;5039604;28;20321;-65
2024/02/22 01:17:40;;;;;;;11.88;3.55;;;;;;;;;;5039678;28;20032;-65
2024/02/22 01:20:06;;;;;;;12.27;3.55;;;7.00;74.80;;;;;;5039736;28;20022;-64
2024/02/22 01:22:32;;;;;;;8.07;3.70;;;;;;;;;;5039506;28;20032;-65
2024/02/22 01:24:58;;;;;;;9.63;3.15;;;;;;;;;;5039294;28;20041;-65
2024/02/22 01:27:26;;;;;;;8.15;3.70;;;;;;;;;;5039641;28;20040;-65
2024/02/22 01:29:51;;;;;;;12.00;3.92;;;7.00;90.00;;;;;;5039311;28;20048;-64
2024/02/22 01:32:18;;;;;;;10.27;3.10;;;;;;;;;;5037992;28;20076;-66
2024/02/22 01:34:45;;;;;;;6.93;3.50;;;;;;;;;;5039119;28;20057;-65
2024/02/22 01:37:11;;;;;;;6.65;3.38;;;;;;;;;;5039619;28;20079;-64
2024/02/22 01:39:37;;;;;;;9.35;3.78;;;;;;;;;;5039347;28;20092;-66
2024/02/22 01:42:03;;;;;;;8.45;4.38;;;;;;;;;;5039149;28;20210;-65
2024/02/22 01:44:30;;;;;;;9.60;3.85;;;6.80;92.40;;;;;;5039582;28;20021;-64
2024/02/22 01:46:56;;;;;;;8.95;3.58;;;6.80;76.10;;;;;;5039118;28;20022;-65
2024/02/22 01:49:24;;;;;;;10.90;3.75;;;6.80;92.40;;;;;;5039503;28;20041;-66
2024/02/22 01:51:57;;;;;;;12.02;5.05;;;5.90;75.70;;;;;;5039305;28;20368;-65
2024/02/22 01:54:23;;;;;;;10.00;3.40;;;;;;;;;;5039623;28;20040;-65
2024/02/22 01:56:49;;;;;;;9.77;3.50;;;6.60;84.70;;;;;;5039495;28;20056;-64
2024/02/22 01:59:15;;;;;;;14.57;5.15;;;6.70;76.80;;;;;;5039578;28;20033;-64
2024/02/22 02:01:42;;;;;;;11.40;3.70;;;7.10;81.20;;;;;;5039847;28;20224;-66
2024/02/22 02:04:11;;;;;;;12.48;4.63;;;6.70;76.10;;;;;;5039439;28;20033;-66
2024/02/22 02:06:36;;;;;;;;;;;6.70;76.60;;;;;;5040715;28;20029;-65
2024/02/22 02:09:03;;;;;;;7.05;3.70;;;;;;;;;;5039855;28;20243;-65
2024/02/22 02:11:29;;;;;;;12.30;4.00;;;;;;;;;;5039926;28;20026;-65
2024/02/22 02:13:55;;;;;;;8.50;3.78;;;;;;;;;;5040061;28;20116;-66
2024/02/22 02:16:20;;;;;;;10.60;3.70;;;6.50;80.60;;;;;;5039716;28;20213;-66
2024/02/22 02:18:46;;;;;;;9.35;4.05;;;7.00;80.70;;;;;;5039705;28;20051;-66
2024/02/22 02:21:49;;;;;;;7.07;3.13;;;6.70;76.20;;;;;;5039757;28;20056;-66
2024/02/22 02:24:37;;;;;;;9.07;4.22;;;6.60;92.50;;;;;;5039633;28;20025;-66
2024/02/22 02:27:05;;;;;;;13.93;3.80;;;6.70;76.10;;;;;;5039676;28;20262;-65
2024/02/22 02:29:30;;;;;;;6.30;3.63;;;6.70;79.80;;;;;;5039458;28;20333;-66
2024/02/22 02:31:56;;;;;;;6.68;3.53;;;;;;;;;;5039790;28;20100;-65
2024/02/22 02:34:22;;;;;;;7.55;3.42;;;;;;;;;;5039449;28;20072;-64
2024/02/22 02:36:48;;;;;;;8.88;4.82;;;7.00;88.10;;;;;;5040179;28;20057;-65
2024/02/22 02:39:14;;;;;;;5.00;3.00;;;;;;;;;;5042348;28;20061;-64
2024/02/22 02:41:40;;;;;;;9.10;3.85;;;;;;;;;;5041406;28;20040;-64
2024/02/22 02:44:06;;;;;;;8.25;3.03;;;;;;;;;;5041643;28;20375;-65
2024/02/22 02:46:32;;;;;;;9.80;3.35;;;;;;;;;;5041570;28;20041;-69
2024/02/22 02:48:58;;;;;;;8.77;4.32;;;;;;;;;;5041715;28;20053;-65
2024/02/22 02:51:24;;;;;;;7.15;2.60;;;6.80;92.10;;;;;;5042070;28;20033;-66
2024/02/22 02:53:50;;;;;;;6.68;3.05;;;;;;;;;;5041695;28;20052;-65
2024/02/22 02:56:16;;;;;;;8.13;2.78;;;;;;;;;;5041370;28;20048;-64
2024/02/22 02:58:42;;;;;;;10.43;3.25;;;;;;;;;;5043323;28;20055;-64
2024/02/22 03:01:08;;;;;;;5.90;2.47;;;;;;;;;;5043895;28;20033;-67
2024/02/22 03:03:34;;;;;;;10.82;3.28;;;;;;;;;;5044738;28;20075;-66
2024/02/22 03:06:00;;;;;;;5.22;2.80;;;;;;;;;;5044774;28;20025;-69
2024/02/22 03:08:26;;;;;;;8.75;2.85;;;6.50;75.50;;;;;;5045144;28;20023;-68
2024/02/22 03:10:52;;;;;;;10.07;3.72;;;;;;;;;;5044463;28;20052;-69
2024/02/22 03:13:18;;;;;;;5.40;2.53;;;;;;;;;;5043139;28;20100;-66
2024/02/22 03:15:48;;;;;;;9.68;3.95;;;;;;;;;;5044605;28;20037;-68
2024/02/22 03:18:14;;;;;;;5.90;3.08;;;;;;;;;;5044771;28;20025;-67
2024/02/22 03:20:41;;;;;;;7.78;3.08;;;;;;;;;;5044333;28;20379;-66
2024/02/22 03:23:07;;;;;;;8.25;2.72;;;;;;;;;;5044314;28;20049;-66
2024/02/22 03:25:33;;;;;;;10.75;3.58;;;6.40;80.70;;;;;;5044665;28;20048;-66
2024/02/22 03:27:59;;;;;;;6.80;3.42;;;;;;;;;;5043018;28;20317;-66
2024/02/22 03:30:26;;;;;;;7.00;3.25;;;6.50;92.60;;;;;;5043063;28;20059;-66
2024/02/22 03:32:52;;;;;;;9.98;3.33;;;;;;;;;;5042549;28;20070;-66
2024/02/22 03:35:19;;;;;;;8.00;3.00;;;6.30;76.60;;;;;;5042380;28;20041;-65
2024/02/22 03:37:45;;;;;;;10.88;3.17;;;;;;;;;;5042876;28;20021;-65
2024/02/22 03:40:11;;;;;;;4.50;2.60;;;;;;;;;;5042306;28;20045;-66
2024/02/22 03:42:38;;;;;;;10.85;3.00;;;;;;;;;;5042352;28;20063;-65
2024/02/22 03:45:05;;;;;;;5.53;2.70;;;6.30;76.50;;;;;;5042176;28;20579;-66
2024/02/22 03:47:31;;;;;;;6.30;3.03;;;;;;;;;;5041841;28;20030;-68
2024/02/22 03:49:57;;;;;;;7.10;2.92;;;6.40;86.40;;;;;;5042198;28;20013;-69
2024/02/22 03:52:23;;;;;;;9.20;3.88;;;6.30;92.20;;;;;;5041718;28;20355;-66
2024/02/22 03:54:49;;;;;;;4.45;2.58;;;6.50;78.90;;;;;;5041413;28;20037;-65
2024/02/22 03:57:16;;;;;;;4.53;2.70;;;;;;;;;;5041728;28;20036;-64
2024/02/22 03:59:41;;;;;;;5.15;2.92;;;6.40;79.20;;;;;;5041540;28;20025;-65
2024/02/22 04:02:07;;;;;;;6.70;3.25;;;6.30;92.70;;;;;;5041397;28;20032;-64
2024/02/22 04:04:33;;;;;;;7.88;3.42;;;6.50;88.90;;;;;;5041411;28;20045;-65
2024/02/22 04:06:58;;;;;;;14.60;5.68;;;6.10;92.40;;;;;;5041305;28;20197;-68
2024/02/22 04:09:25;;;;;;;8.63;4.20;;;;;;;;;;5041345;28;20091;-68
2024/02/22 04:11:51;;;;;;;5.80;3.38;;;;;;;;;;5040778;28;20079;-65
2024/02/22 04:14:16;;;;;;;5.50;3.30;;;6.00;83.20;;;;;;5041316;28;20041;-65
2024/02/22 04:16:42;;;;;;;9.40;3.95;;;5.80;83.30;;;;;;5041216;28;20099;-65
2024/02/22 04:19:07;;;;;;;12.48;4.93;;;5.80;93.50;;;;;;5041162;28;20245;-64
2024/02/22 04:21:40;;;;;;;11.65;5.45;;;5.80;79.50;;;;;;5040911;28;20501;-65
2024/02/22 04:24:06;;;;;;;13.95;5.68;;;5.60;94.20;;;;;;5041186;28;20091;-67
2024/02/22 04:26:32;;;;;;;10.05;5.05;;;5.60;90.00;;;;;;5040956;28;20436;-66
2024/02/22 04:28:58;;;;;;;10.70;4.38;;;;;;;;;;5041058;28;20025;-65
2024/02/22 04:31:24;;;;;;;8.75;4.68;;;;;;;;;;5040271;28;20073;-65
2024/02/22 04:33:50;;;;;;;8.88;4.70;;;;;;;;;;5040320;28;20485;-65
2024/02/22 04:36:16;;;;;;;8.02;3.78;;;;;;;;;;5040865;28;20083;-65
2024/02/22 04:38:42;;;;;;;9.07;3.30;;;;;;;;;;5041089;28;20280;-66
2024/02/22 04:41:08;;;;;;;15.30;5.70;;;;;;;;;;5041890;28;20037;-66
2024/02/22 04:43:34;;;;;;;9.48;4.30;;;;;;;;;;5041973;28;20017;-65
2024/02/22 04:46:00;;;;;;;8.77;3.92;;;5.80;93.90;;;;;;5033186;28;20021;-66
2024/02/22 04:48:26;;;;;;;12.52;3.50;;;;;;;;;;5022784;28;20120;-67
2024/02/22 04:50:52;;;;;;;6.60;3.25;;;;;;;;;;5022943;28;20045;-67
2024/02/22 04:53:19;;;;;;;11.10;3.60;;;5.90;88.50;;;;;;5040475;28;20215;-66
2024/02/22 04:55:45;;;;;;;10.27;4.57;;;;;;;;;;5040997;28;20096;-66
2024/02/22 04:58:12;;;;;;;13.68;4.78;;;;;;;;;;5042158;28;20041;-65
2024/02/22 05:00:40;;;;;;;10.43;4.38;;;;;;;;;;5042140;28;20083;-66
2024/02/22 05:03:06;;;;;;;10.73;4.05;;;;;;;;;;5042200;28;20025;-66
2024/02/22 05:05:32;;;;;;;12.50;3.17;;;;;;;;;;5040311;28;20084;-67
2024/02/22 05:07:58;;;;;;;5.00;3.38;;;6.50;81.80;;;;;;5039501;28;20033;-67
2024/02/22 05:10:24;;;;;;;9.57;4.20;;;;;;;;;;5040044;28;20056;-66
2024/02/22 05:12:50;;;;;;;6.75;2.92;;;6.70;93.00;;;;;;5040102;28;20021;-67
2024/02/22 05:15:16;;;;;;;6.63;3.83;;;;;;;;;;5039845;28;20033;-67
2024/02/22 05:17:42;;;;;;;6.78;3.50;;;;;;;;;;5040439;28;20051;-68
2024/02/22 05:20:09;;;;;;;5.60;2.92;;;6.50;76.90;;;;;;5040007;28;20048;-67
2024/02/22 05:22:35;;;;;;;9.48;4.65;;;6.50;92.60;;;;;;5039768;28;20032;-68
2024/02/22 05:25:00;;;;;;;9.35;4.65;;;6.60;92.60;;;;;;5039311;28;20237;-68
2024/02/22 05:27:29;;;;;;;12.35;3.90;;;;;;;;;;5039361;28;20033;-68
2024/02/22 05:29:55;;;;;;;9.77;4.63;;;6.60;85.00;;;;;;5039701;28;20017;-70
2024/02/22 05:32:23;;;;;;;10.50;4.43;;;6.50;76.10;;;;;;5039904;28;20613;-66
2024/02/22 05:34:48;;;;;;;9.85;4.20;;;6.50;92.50;;;;;;5039473;28;20072;-65
2024/02/22 05:37:14;;;;;;;8.35;4.22;;;;;;;;;;5039798;28;20017;-65
2024/02/22 05:39:40;;;;;;;9.15;3.67;;;6.90;92.80;;;;;;5040387;28;20321;-65
2024/02/22 05:42:06;;;;;;;9.95;4.75;;;6.40;92.70;;;;;;5039024;28;20060;-65
2024/02/22 05:44:32;;;;;;;13.50;3.80;;;;;;;;;;5040121;28;20030;-65
2024/02/22 05:46:58;;;;;;;11.35;4.50;;;;;;;;;;5040415;28;20026;-64
2024/02/22 05:49:24;;;;;;;6.75;3.35;;;;;;;;;;5040291;28;20100;-64
2024/02/22 05:51:50;;;;;;;10.35;4.43;;;;;;;;;;5038743;28;20075;-63
2024/02/22 05:54:17;;;;;;;12.02;5.40;;;;;;;;;;5040271;28;20055;-66
2024/02/22 05:56:43;;;;;;;11.27;5.28;;;6.30;85.60;;;;;;5040620;28;20021;-62
2024/02/22 05:59:09;;;;;;;12.10;5.53;;;;;;;;;;5040433;28;20029;-62
2024/02/22 06:01:35;;;;;;;11.45;6.53;;;;;;;;;;5031803;28;20025;-66
2024/02/22 06:04:01;;;;;;;8.85;4.53;;;;;;;;;;5040813;28;20018;-67
2024/02/22 06:06:27;;;;;;;15.10;6.20;;;6.20;89.40;;;;;;5040840;28;20305;-69
2024/02/22 06:08:53;;;;;;;8.73;4.50;;;;;;;;;;5041358;28;20059;-69
2024/02/22 06:11:20;;;;;;;6.57;3.95;;;;;;;;;;5023085;28;20029;-70
2024/02/22 06:13:46;;;;;;;13.98;5.72;;;4.40;79.10;;;;;;5020928;28;20195;-70
2024/02/22 06:16:11;;;;;;;14.93;6.65;;;6.20;88.30;;;;;;5020355;28;20033;-69
2024/02/22 06:18:37;;;;;;;15.48;5.82;;;;;;;;;;5020524;28;20025;-69
2024/02/22 06:21:03;;;;;;;9.02;5.05;;;;;;;;;;5020291;28;20030;-69
2024/02/22 06:23:29;;;;;;;10.80;5.40;;;;;;;;;;5027308;28;20297;-69
2024/02/22 06:25:57;;;;;;;12.73;5.75;;;;;;;;;;5041076;28;20382;-68
2024/02/22 06:28:24;;;;;;;10.32;4.93;;;6.40;81.80;;;;;;5041081;28;20031;-71
2024/02/22 06:30:50;;;;;;;11.77;4.47;;;6.40;90.90;;;;;;5041086;28;20122;-70
2024/02/22 06:33:15;;;;;;;9.93;3.95;;;6.50;85.70;;;;;;5042299;28;20049;-64
2024/02/22 06:35:41;;;;;;;10.68;4.47;;;6.40;92.60;;;;;;5043836;28;20226;-65
2024/02/22 06:38:07;;;;;;;12.30;5.90;;;;;;;;;;5044008;28;20198;-67
2024/02/22 06:40:33;;;;;;;11.93;5.35;;;;;;;;;;5044336;28;20396;-66
2024/02/22 06:42:59;;;;;;;7.38;4.18;;;6.70;88.00;;;;;;5044398;28;20089;-66
2024/02/22 06:45:24;;;;;;;13.77;5.72;;;6.90;93.80;;;;;;5034423;28;20053;-68
2024/02/22 06:47:51;;;;;;;11.05;5.03;;;7.10;93.80;;;;;;5023458;28;20033;-65
2024/02/22 06:50:17;;;;;;;6.13;3.88;;;7.00;90.00;;;;;;5023606;28;20060;-65
2024/02/22 06:52:43;;;;;;;8.15;3.53;;;7.30;87.50;;;;;;5023539;28;20022;-66
2024/02/22 06:55:10;;;;;;;6.28;3.60;;;;;;;;;;5027722;28;20061;-64
2024/02/22 06:57:38;;;;;;;9.00;4.45;;;7.50;82.50;;;;;;5023172;28;20025;-68
2024/02/22 07:00:05;;;;;;;12.88;6.03;;;7.50;91.40;;;;;;5026669;28;20601;-64
2024/02/22 07:02:31;;;;;;;7.93;3.90;;;;;;;;;;5041582;28;20052;-66
2024/02/22 07:04:57;;;;;;;9.38;3.85;;;8.00;73.50;;;;;;5042818;28;20029;-63
2024/02/22 07:07:23;;;;;;;8.20;3.50;;;;;;;;;;5042426;28;20218;-66
2024/02/22 07:09:49;;;;;;;5.57;3.13;;;;;;;;;;5038801;28;20064;-67
2024/02/22 07:12:15;;;;;;;9.75;3.70;;;;;;;;;;5047700;28;20043;-63
2024/02/22 07:14:41;;;;;;;8.60;3.72;;;;;;;;;;5042483;28;20337;-63
2024/02/22 07:17:07;;;;;;;8.73;3.55;;;8.60;87.70;;;;;;5032734;28;20192;-65
2024/02/22 07:19:33;;;;;;;5.75;3.58;;;8.80;86.40;;;;;;5022823;28;20367;-64
2024/02/22 07:21:58;;;;;;;5.57;3.60;;;8.80;86.30;;;;;;5023942;28;20030;-63
2024/02/22 07:24:24;;;;;;;8.38;3.92;;;;;;;;;;5042177;28;20030;-64
2024/02/22 07:26:50;;;;;;;6.90;3.38;;;;;;;;;;5042180;28;20026;-63
2024/02/22 07:29:17;;;;;;;5.97;3.47;;;;;;;;;;5041473;28;20116;-64
2024/02/22 07:31:43;;;;;;;13.27;4.28;;;9.00;85.10;;;;;;5040242;28;20123;-66
2024/02/22 07:34:09;;;;;;;6.03;3.20;;;9.10;84.80;;;;;;5040104;28;20144;-65
2024/02/22 07:36:35;;;;;;;7.50;4.13;;;9.00;85.00;;;;;;5042459;28;20384;-64
2024/02/22 07:39:01;;;;;;;7.05;3.90;;;;;;;;;;5042191;28;20097;-65
2024/02/22 07:41:27;;;;;;;8.48;3.95;;;9.20;72.80;;;;;;5042170;28;20032;-64
2024/02/22 07:43:56;;;;;;;7.32;3.72;;;9.00;84.50;;;;;;5041454;28;20088;-65
2024/02/22 07:46:23;;;;;;;9.02;3.75;;;;;;;;;;5042167;28;20108;-64
2024/02/22 07:48:49;;;;;;;7.00;4.47;;;9.50;83.70;;;;;;5041938;28;20329;-64
2024/02/22 07:51:15;;;;;;;6.13;3.80;;;9.40;83.10;;;;;;5040934;28;20040;-64
2024/02/22 07:53:42;;;;;;;6.15;3.63;;;9.40;83.10;;;;;;5041758;28;20036;-63
2024/02/22 07:56:09;;;;;;;6.10;3.65;;;9.70;82.80;;;;;;5041853;28;20101;-64
2024/02/22 07:58:46;;;;;;;8.07;4.03;;;9.40;82.20;;;;;;5041622;28;20036;-64
2024/02/22 08:01:11;;;;;;;12.73;4.13;;;9.50;64.50;;;;;;5041573;28;20017;-63
2024/02/22 08:03:37;;;;;;;6.75;4.03;;;9.80;82.00;;;;;;5041758;28;20092;-64
2024/02/22 08:06:03;;;;;;;11.73;4.20;;;10.00;81.90;;;;;;5041316;28;20208;-63
2024/02/22 08:08:29;;;;;;;7.97;4.22;;;9.90;81.20;;;;;;5041273;28;20329;-63
2024/02/22 08:10:55;;;;;;;11.57;4.38;;;10.00;81.10;;;;;;5041466;28;20031;-64
2024/02/22 08:13:21;;;;;;;9.02;4.10;;;10.10;80.50;;;;;;5041012;28;20373;-63
2024/02/22 08:15:47;;;;;;;6.05;4.28;;;10.20;80.50;;;;;;5041180;28;20033;-64
2024/02/22 08:18:13;;;;;;;6.13;3.75;;;10.20;80.10;;;;;;5041642;28;20029;-64
2024/02/22 08:20:39;;;;;;;7.40;4.03;;;;;;;;;;5041452;28;20021;-64
2024/02/22 08:23:08;;;;;;;6.20;4.05;;;10.00;79.90;;;;;;5041337;28;20024;-65
2024/02/22 08:25:37;;;;;;;5.43;3.13;;;10.00;79.60;;;;;;5041271;28;20025;-64
2024/02/22 08:28:08;;;;;;;9.80;3.63;;;10.10;63.70;;;;;;5041179;28;20026;-64
2024/02/22 08:30:35;;;;;;;7.43;4.38;;;10.10;80.00;;;;;;5040620;28;20026;-65
2024/02/22 08:33:02;;;;;;;9.07;5.00;;;10.30;79.90;;;;;;5040869;28;20345;-64
2024/02/22 08:35:28;;;;;;;7.72;3.97;;;10.10;79.70;;;;;;5041278;28;20053;-64
2024/02/22 08:37:54;;;;;;;8.52;4.13;;;;;;;;;;5040715;28;20124;-64
2024/02/22 08:40:20;;;;;;;8.98;4.65;;;10.20;80.00;;;;;;5040693;28;20022;-65
2024/02/22 08:42:45;;;;;;;8.07;4.47;;;9.90;80.00;;;;;;5040602;28;20044;-64
2024/02/22 08:45:14;;;;;;;8.15;4.28;;;9.90;80.40;;;;;;5040774;28;20037;-64
2024/02/22 08:47:41;;;;;;;;;;;10.00;62.80;;;;;;5041092;28;20068;-64
2024/02/22 08:50:08;;;;;;;7.65;4.82;;;10.00;80.70;;;;;;5041077;28;19928;-64
2024/02/22 08:52:36;;;;;;;9.02;4.63;;;10.00;80.50;;;;;;5040544;28;20337;-64
2024/02/22 08:55:02;;;;;;;9.77;4.72;;;10.20;72.70;;;;;;5040008;28;20041;-65
2024/02/22 08:57:28;;;;;;;14.38;5.70;;;10.30;80.20;;;;;;5041223;28;20123;-64
2024/02/22 08:59:54;;;;;;;12.70;4.97;;;10.30;79.30;;;;;;5039311;28;20325;-67
2024/02/22 09:02:19;;;;;;;10.25;4.70;;;10.60;79.40;;;;;;5040615;28;20026;-64
2024/02/22 09:04:45;;;;;;;7.68;4.55;;;10.50;78.90;;;;;;5040405;28;20021;-64
2024/02/22 09:07:11;;;;;;;6.57;4.13;;;11.00;78.40;;;;;;5040898;28;20040;-65
2024/02/22 09:09:37;;;;;;;8.15;4.82;;;10.80;78.00;;;;;;5040628;28;20593;-65
2024/02/22 09:12:04;;;;;;;6.35;4.32;;;11.30;77.10;;;;;;5041371;28;20550;-66
2024/02/22 09:14:30;;;;;;;8.88;4.63;;;11.40;76.00;;;;;;5039962;28;20093;-64
2024/02/22 09:16:56;;;;;;;7.88;4.75;;;11.60;75.70;;;;;;5040252;28;20021;-65
2024/02/22 09:19:23;;;;;;;8.57;4.35;;;11.70;75.30;;;;;;5039857;28;20021;-64
2024/02/22 09:21:48;;;;;;;8.52;4.43;;;11.60;62.00;;;;;;5039996;28;20030;-65
2024/02/22 09:24:14;;;;;;;7.55;3.97;;;;;;;;;;5038977;28;20025;-65
2024/02/22 09:26:40;;;;;;;5.78;3.83;;;11.90;57.70;;;;;;5040104;28;20347;-74
2024/02/22 09:29:06;;;;;;;7.65;4.22;;;12.20;73.30;;;;;;5039056;28;20010;-64
2024/02/22 09:31:32;;;;;;;6.43;3.53;;;12.20;72.60;;;;;;5040043;28;20198;-66
2024/02/22 09:34:00;;;;;;;7.13;3.63;;;12.50;71.90;;;;;;5039776;28;20120;-71
2024/02/22 09:36:26;;;;;;;7.60;4.10;;;12.60;71.10;;;;;;5038842;28;20021;-66
2024/02/22 09:38:52;;;;;;;6.63;3.80;;;12.90;70.70;;;;;;5039853;28;20033;-65
2024/02/22 09:41:19;;;;;;;7.20;4.00;;;12.70;69.90;;;;;;5039618;28;20029;-65
2024/02/22 09:43:45;;;;;;;7.00;3.53;;;13.50;69.70;;;;;;5039827;28;20029;-65
2024/02/22 09:46:11;;;;;;;4.95;3.38;;;13.40;68.90;;;;;;5039462;28;20209;-65
2024/02/22 09:48:37;;;;;;;7.05;3.28;;;13.40;68.00;;;;;;5039708;28;20025;-64
2024/02/22 09:51:05;;;;;;;7.78;3.55;;;13.40;67.10;;;;;;5039528;28;20117;-66
2024/02/22 09:53:31;;;;;;;5.90;3.63;;;13.40;67.60;;;;;;5039561;28;20335;-64
2024/02/22 09:55:57;;;;;;;6.65;3.97;;;13.50;67.40;;;;;;5039615;28;20028;-67
2024/02/22 09:58:24;;;;;;;5.85;4.22;;;;;;;;;;5039327;28;20021;-66
2024/02/22 10:00:50;;;;;;;7.82;4.28;;;13.40;68.30;;;;;;5030684;28;20372;-64
2024/02/22 10:03:16;;;;;;;7.68;4.35;;;13.20;68.30;;;;;;5031754;28;20041;-64
2024/02/22 10:05:42;;;;;;;7.80;4.25;;;13.20;68.30;;;;;;5038208;28;20025;-65
2024/02/22 10:08:13;;;;;;;6.68;4.00;;;13.20;68.30;;;;;;5040401;28;20108;-65
2024/02/22 10:10:44;;;;;;;6.32;4.30;;;13.50;68.70;;;;;;5023532;28;20349;-65
2024/02/22 10:13:20;;;;;;;8.48;4.53;;;13.20;68.10;;;;;;5023699;28;20510;-64
2024/02/22 10:15:46;;;;;;;9.48;5.07;;;13.00;68.20;;;;;;5036099;28;20110;-64
2024/02/22 10:18:12;;;;;;;6.47;4.10;;;13.10;68.30;;;;;;5042463;28;20017;-64
2024/02/22 10:20:37;;;;;;;6.70;4.72;;;13.10;68.60;;;;;;5043077;28;20025;-65
2024/02/22 10:23:13;;;;;;;6.53;4.60;;;13.20;68.60;;;;;;5043509;28;20021;-66
2024/02/22 10:25:40;;;;;;;8.13;4.70;;;13.50;69.00;;;;;;5043143;28;20021;-64
2024/02/22 10:28:06;;;;;;;8.60;5.20;;;13.30;68.80;;;;;;5043187;28;20021;-63
2024/02/22 10:30:35;;;;;;;6.53;4.82;;;13.70;68.80;;;;;;5043189;28;20321;-64
2024/02/22 10:33:02;;;;;;;10.05;4.97;;;13.70;68.20;;;;;;5043093;28;20060;-64
2024/02/22 10:35:28;;;;;;;9.38;5.35;;;13.60;68.10;;;;;;5043149;28;20041;-66
2024/02/22 10:37:54;;;;;;;5.63;3.80;;;13.40;68.10;;;;;;5042827;28;20017;-65
2024/02/22 10:40:20;;;;;;;5.32;2.95;;;13.80;67.80;;;;;;5042419;28;20322;-65
2024/02/22 10:42:50;;;;;;;6.53;4.63;;;13.70;52.70;;;;;;5042902;28;20067;-64
2024/02/22 10:45:15;;;;;;;6.18;3.80;;;13.90;67.40;;;;;;5042505;28;20521;-64
2024/02/22 10:47:44;;;;;;;8.45;4.38;;;14.30;66.80;;;;;;5042825;28;20029;-64
2024/02/22 10:50:13;;;;;;;;;;;14.30;52.30;;;;;;5043119;28;20033;-64
2024/02/22 10:52:40;;;;;;;8.98;3.83;;;14.40;51.80;;;;;;5042389;28;20023;-65
2024/02/22 10:55:15;;;;;;;9.55;4.53;;;14.50;65.90;;;;;;5042647;28;20029;-64
2024/02/22 10:57:48;;;;;;;9.82;4.82;;;14.30;51.80;;;;;;5042493;28;20013;-64
2024/02/22 11:00:14;;;;;;;9.20;5.55;;;14.30;67.00;;;;;;5042640;28;20060;-64
2024/02/22 11:02:42;;;;;;;8.23;5.03;;;14.40;67.10;;;;;;5042522;28;20033;-65
2024/02/22 11:05:11;;;;;;;8.10;4.72;;;13.80;66.50;;;;;;5042502;28;20176;-65
2024/02/22 11:07:44;;;;;;;6.38;4.18;;;14.00;66.80;;;;;;5042190;28;20337;-65
2024/02/22 11:10:12;;;;;;;7.72;5.05;;;14.00;67.00;;;;;;5042236;28;20234;-64
2024/02/22 11:12:45;;;;;;;6.47;4.18;;;14.30;67.50;;;;;;5042274;28;20033;-64
2024/02/22 11:15:12;;;;;;;9.68;5.30;;;14.40;67.10;;;;;;5041553;28;20049;-65
2024/02/22 11:17:40;;;;;;;10.20;4.60;;;14.70;66.30;;;;;;5053627;28;20096;-70
2024/02/22 11:20:09;;;;;;;3.75;3.05;;;14.60;51.80;;;;;;5060665;28;20037;-65
2024/02/22 11:22:36;;;;;;;5.68;3.10;;;14.60;64.70;;;;;;5062049;28;20033;-65
2024/02/22 11:25:09;;;;;;;7.43;4.25;;;14.60;64.30;;;;;;5061680;28;20108;-65
2024/02/22 11:27:39;;;;;;;7.38;3.80;;;14.70;50.40;;;;;;5061769;28;20056;-65
2024/02/22 11:30:15;;;;;;;5.20;3.10;;;14.80;63.90;;;;;;5061907;28;20029;-70
2024/02/22 11:32:41;;;;;;;4.88;3.55;;;14.70;64.00;;;;;;5061583;28;20052;-65
2024/02/22 11:35:07;;;;;;;5.32;3.42;;;14.60;64.30;;;;;;5061857;28;20213;-67
2024/02/22 11:37:33;;;;;;;6.40;3.97;;;14.60;64.50;;;;;;5061463;28;20328;-65
2024/02/22 11:39:59;;;;;;;7.70;3.50;;;14.40;64.90;;;;;;5061426;28;20029;-67
2024/02/22 11:42:26;;;;;;;6.03;3.42;;;14.80;65.20;;;;;;5061522;28;20384;-69
2024/02/22 11:44:52;;;;;;;7.22;4.28;;;14.70;64.90;;;;;;5060890;28;20048;-65
2024/02/22 11:47:18;;;;;;;4.72;3.60;;;14.60;64.50;;;;;;5061406;28;20025;-66
2024/02/22 11:49:44;;;;;;;7.13;3.58;;;15.50;65.30;;;;;;5061448;28;20021;-67
2024/02/22 11:52:11;;;;;;;6.47;4.30;;;14.50;65.10;;;;;;5050150;28;20053;-65
2024/02/22 11:54:38;;;;;;;5.72;3.65;;;14.60;50.60;;;;;;5040881;28;20052;-65
2024/02/22 11:57:04;;;;;;;6.07;3.75;;;14.80;64.90;;;;;;5021503;28;20029;-66
2024/02/22 11:59:33;;;;;;;5.57;2.75;;;14.70;64.60;;;;;;5021919;28;20049;-65
2024/02/22 12:02:04;;;;;;;5.45;3.58;;;14.70;63.80;;;;;;5021905;28;20077;-65
2024/02/22 12:04:32;;;;;;;5.25;2.85;;;14.80;49.80;;;;;;5041421;28;20063;-65
2024/02/22 12:07:02;;;;;;;3.60;2.38;;;14.70;63.00;;;;;;5037478;28;20028;-65
2024/02/22 12:09:29;;;;;;;2.80;2.20;;;14.70;64.90;;;;;;5040905;28;20034;-66
2024/02/22 12:11:55;;;;;;;2.88;2.17;;;14.40;49.50;;;;;;5041175;28;20014;-68
2024/02/22 12:14:21;;;;;;;4.13;2.10;;;14.70;48.40;;;;;;5041131;28;20037;-64
2024/02/22 12:16:47;;;;;;;3.78;2.30;;;15.00;63.00;;;;;;5040605;28;20556;-65
2024/02/22 12:19:17;;;;;;;10.95;2.22;;;14.70;62.50;;;;;;5040640;28;20313;-65
2024/02/22 12:21:46;;;;;;;4.95;2.80;;;14.50;51.10;;;;;;5040647;28;20036;-66
2024/02/22 12:24:11;;;;;;;2.78;1.60;;;14.50;62.10;;;;;;5040842;28;20033;-64
2024/02/22 12:26:37;;;;;;;4.35;2.72;;;14.60;54.70;;;;;;5040736;28;20037;-65
2024/02/22 12:29:03;;;;;;;3.22;2.17;;;14.60;48.00;;;;;;5040843;28;20087;-65
2024/02/22 12:31:28;;;;;;;6.32;2.70;;;14.70;62.90;;;;;;5040383;28;20217;-65
2024/02/22 12:33:56;;;;;;;2.90;2.10;;;14.30;62.90;;;;;;5040627;28;20045;-69
2024/02/22 12:36:24;;;;;;;2.70;1.95;;;14.20;63.40;;;;;;5040468;28;20086;-67
2024/02/22 12:38:50;;;;;;;3.05;2.10;;;14.30;64.10;;;;;;5039941;28;20025;-64
2024/02/22 12:41:17;;;;;;;4.43;2.95;;;13.90;64.10;;;;;;5040483;28;20102;-65
2024/02/22 12:43:49;;;;;;;3.90;2.40;;;14.00;49.40;;;;;;5040790;28;20043;-65
2024/02/22 12:46:16;;;;;;;3.88;2.42;;;13.80;49.60;;;;;;5040777;28;20037;-69
2024/02/22 12:48:43;;;;;;;3.58;2.90;;;13.60;64.90;;;;;;5040629;28;20024;-65
2024/02/22 12:51:10;;;;;;;5.57;2.40;;;13.60;49.90;;;;;;5040549;28;20459;-65
2024/02/22 12:53:35;;;;;;;4.00;2.78;;;13.50;65.80;;;;;;5041441;28;20052;-69
2024/02/22 12:56:01;;;;;;;5.25;2.10;;;13.50;65.90;;;;;;5042092;28;20044;-69
2024/02/22 12:58:28;;;;;;;4.90;2.53;;;13.60;66.30;;;;;;5042096;28;20014;-65
2024/02/22 13:00:54;;;;;;;2.92;2.40;;;13.50;66.80;;;;;;5042186;28;20329;-67
2024/02/22 13:03:21;;;;;;;4.32;2.40;;;13.50;66.70;;;;;;5042436;28;20013;-69
2024/02/22 13:05:46;;;;;;;3.60;2.20;;;13.30;67.10;;;;;;5042014;28;20340;-68
2024/02/22 13:08:12;;;;;;;4.47;2.55;;;13.30;67.40;;;;;;5042328;28;20013;-67
2024/02/22 13:10:38;;;;;;;2.45;1.63;;;13.40;67.40;;;;;;5042080;28;20029;-74
2024/02/22 13:13:06;;;;;;;4.88;1.52;;;13.30;67.80;;;;;;5042328;28;20021;-67
2024/02/22 13:15:37;;;;;;;5.15;2.10;;;13.30;68.30;;;;;;5042398;28;20037;-67
2024/02/22 13:18:03;;;;;;;6.60;2.60;;;13.10;68.30;;;;;;5041008;28;20321;-68
2024/02/22 13:20:32;;;;;;;6.13;2.88;;;13.10;68.30;;;;;;5042108;28;20032;-67
2024/02/22 13:22:58;;;;;;;4.43;2.53;;;12.90;68.50;;;;;;5041872;28;20345;-67